sensor_id;sensor_type;location;lat;lon;timestamp;P1;durP1;ratioP1;P2;durP2;ratioP2
60873;SDS011;46715;40.642;-7.920;2024-02-14T00:01:16;17.20;;;10.23;;
60873;SDS011;46715;40.642;-7.920;2024-02-14T00:03:18;21.35;;;11.30;;
60873;SDS011;46715;40.642;-7.920;2024-02-14T00:05:21;22.77;;;12.10;;
60873;SDS011;46715;40.642;-7.920;2024-02-14T00:07:22;23.85;;;12.55;;
60873;SDS011;46715;40.642;-7.920;2024-02-14T00:09:23;29.10;;;13.07;;
60873;SDS011;46715;40.642;-7.920;2024-02-14T00:11:24;21.83;;;12.20;;
60873;SDS011;46715;40.642;-7.920;2024-02-14T00:13:25;21.17;;;10.40;;
60873;SDS011;46715;40.642;-7.920;2024-02-14T00:15:26;23.98;;;11.60;;
60873;SDS011;46715;40.642;-7.920;2024-02-14T00:17:27;17.20;;;10.48;;
60873;SDS011;46715;40.642;-7.920;2024-02-14T00:19:28;19.83;;;10.90;;
60873;SDS011;46715;40.642;-7.920;2024-02-14T00:21:29;22.67;;;11.90;;
60873;SDS011;46715;40.642;-7.920;2024-02-14T00:23:37;18.90;;;10.48;;
60873;SDS011;46715;40.642;-7.920;2024-02-14T00:25:38;21.23;;;10.67;;
60873;SDS011;46715;40.642;-7.920;2024-02-14T00:27:39;27.40;;;11.23;;
60873;SDS011;46715;40.642;-7.920;2024-02-14T00:29:41;20.65;;;11.70;;
60873;SDS011;46715;40.642;-7.920;2024-02-14T00:31:44;22.23;;;11.90;;
60873;SDS011;46715;40.642;-7.920;2024-02-14T00:33:45;23.47;;;13.37;;
60873;SDS011;46715;40.642;-7.920;2024-02-14T00:35:46;26.63;;;14.10;;
60873;SDS011;46715;40.642;-7.920;2024-02-14T00:37:47;24.03;;;13.27;;
60873;SDS011;46715;40.642;-7.920;2024-02-14T00:39:48;24.25;;;12.63;;
60873;SDS011;46715;40.642;-7.920;2024-02-14T00:41:50;26.17;;;12.07;;
60873;SDS011;46715;40.642;-7.920;2024-02-14T00:43:53;20.23;;;11.32;;
60873;SDS011;46715;40.642;-7.920;2024-02-14T00:45:54;39.50;;;12.70;;
60873;SDS011;46715;40.642;-7.920;2024-02-14T00:47:57;57.90;;;14.40;;
60873;SDS011;46715;40.642;-7.920;2024-02-14T00:49:57;107.03;;;16.00;;
60873;SDS011;46715;40.642;-7.920;2024-02-14T00:51:58;95.07;;;15.13;;
60873;SDS011;46715;40.642;-7.920;2024-02-14T00:53:59;101.33;;;14.73;;
60873;SDS011;46715;40.642;-7.920;2024-02-14T00:56:00;185.53;;;21.70;;
60873;SDS011;46715;40.642;-7.920;2024-02-14T00:58:07;91.60;;;14.97;;
60873;SDS011;46715;40.642;-7.920;2024-02-14T01:00:23;100.63;;;16.15;;
60873;SDS011;46715;40.642;-7.920;2024-02-14T01:02:24;133.68;;;18.33;;
60873;SDS011;46715;40.642;-7.920;2024-02-14T01:04:26;173.50;;;23.15;;
60873;SDS011;46715;40.642;-7.920;2024-02-14T01:06:27;115.83;;;22.40;;
60873;SDS011;46715;40.642;-7.920;2024-02-14T01:08:30;169.43;;;22.58;;
60873;SDS011;46715;40.642;-7.920;2024-02-14T01:10:38;169.25;;;22.67;;
60873;SDS011;46715;40.642;-7.920;2024-02-14T01:12:38;158.00;;;20.90;;
60873;SDS011;46715;40.642;-7.920;2024-02-14T01:14:40;232.77;;;26.50;;
60873;SDS011;46715;40.642;-7.920;2024-02-14T01:16:45;119.90;;;18.85;;
60873;SDS011;46715;40.642;-7.920;2024-02-14T01:18:46;84.03;;;18.17;;
60873;SDS011;46715;40.642;-7.920;2024-02-14T01:20:47;103.32;;;19.10;;
60873;SDS011;46715;40.642;-7.920;2024-02-14T01:22:48;72.77;;;16.67;;
60873;SDS011;46715;40.642;-7.920;2024-02-14T01:24:48;30.73;;;13.60;;
60873;SDS011;46715;40.642;-7.920;2024-02-14T01:26:49;23.50;;;11.87;;
60873;SDS011;46715;40.642;-7.920;2024-02-14T01:30:51;19.70;;;10.10;;
60873;SDS011;46715;40.642;-7.920;2024-02-14T01:32:52;20.77;;;10.63;;
60873;SDS011;46715;40.642;-7.920;2024-02-14T01:34:54;20.65;;;11.20;;
60873;SDS011;46715;40.642;-7.920;2024-02-14T01:36:55;20.07;;;10.43;;
60873;SDS011;46715;40.642;-7.920;2024-02-14T01:39:04;21.10;;;12.03;;
60873;SDS011;46715;40.642;-7.920;2024-02-14T01:41:20;22.48;;;11.00;;
60873;SDS011;46715;40.642;-7.920;2024-02-14T01:43:21;19.48;;;11.77;;
60873;SDS011;46715;40.642;-7.920;2024-02-14T01:45:22;28.20;;;12.00;;
60873;SDS011;46715;40.642;-7.920;2024-02-14T01:47:23;51.00;;;13.38;;
60873;SDS011;46715;40.642;-7.920;2024-02-14T01:49:24;54.55;;;15.80;;
60873;SDS011;46715;40.642;-7.920;2024-02-14T01:51:31;34.70;;;17.17;;
60873;SDS011;46715;40.642;-7.920;2024-02-14T01:53:32;34.70;;;16.23;;
60873;SDS011;46715;40.642;-7.920;2024-02-14T01:55:33;42.42;;;16.20;;
60873;SDS011;46715;40.642;-7.920;2024-02-14T01:58:00;47.13;;;18.98;;
60873;SDS011;46715;40.642;-7.920;2024-02-14T02:00:00;42.58;;;16.95;;
60873;SDS011;46715;40.642;-7.920;2024-02-14T02:02:12;70.60;;;15.65;;
60873;SDS011;46715;40.642;-7.920;2024-02-14T02:04:13;102.88;;;19.38;;
60873;SDS011;46715;40.642;-7.920;2024-02-14T02:06:14;73.82;;;14.38;;
60873;SDS011;46715;40.642;-7.920;2024-02-14T02:10:17;81.05;;;15.77;;
60873;SDS011;46715;40.642;-7.920;2024-02-14T02:12:18;70.53;;;14.88;;
60873;SDS011;46715;40.642;-7.920;2024-02-14T02:14:19;79.10;;;15.00;;
60873;SDS011;46715;40.642;-7.920;2024-02-14T02:16:21;64.30;;;15.93;;
60873;SDS011;46715;40.642;-7.920;2024-02-14T02:18:22;78.95;;;16.05;;
60873;SDS011;46715;40.642;-7.920;2024-02-14T02:20:23;58.30;;;13.20;;
60873;SDS011;46715;40.642;-7.920;2024-02-14T02:22:24;108.00;;;15.10;;
60873;SDS011;46715;40.642;-7.920;2024-02-14T02:24:31;77.37;;;15.20;;
60873;SDS011;46715;40.642;-7.920;2024-02-14T02:26:31;33.28;;;12.25;;
60873;SDS011;46715;40.642;-7.920;2024-02-14T02:28:32;52.63;;;12.03;;
60873;SDS011;46715;40.642;-7.920;2024-02-14T02:30:33;71.80;;;12.97;;
60873;SDS011;46715;40.642;-7.920;2024-02-14T02:32:34;17.75;;;9.80;;
60873;SDS011;46715;40.642;-7.920;2024-02-14T02:34:35;19.75;;;10.50;;
60873;SDS011;46715;40.642;-7.920;2024-02-14T02:36:39;20.23;;;11.40;;
60873;SDS011;46715;40.642;-7.920;2024-02-14T02:38:41;21.30;;;10.05;;
60873;SDS011;46715;40.642;-7.920;2024-02-14T02:40:42;19.77;;;9.90;;
60873;SDS011;46715;40.642;-7.920;2024-02-14T02:42:44;21.85;;;10.95;;
60873;SDS011;46715;40.642;-7.920;2024-02-14T02:44:50;17.05;;;9.40;;
60873;SDS011;46715;40.642;-7.920;2024-02-14T02:46:51;16.83;;;9.40;;
60873;SDS011;46715;40.642;-7.920;2024-02-14T02:48:52;20.37;;;10.40;;
60873;SDS011;46715;40.642;-7.920;2024-02-14T02:50:55;18.73;;;10.25;;
60873;SDS011;46715;40.642;-7.920;2024-02-14T02:53:02;20.65;;;9.55;;
60873;SDS011;46715;40.642;-7.920;2024-02-14T02:55:03;19.38;;;10.48;;
60873;SDS011;46715;40.642;-7.920;2024-02-14T02:57:05;17.10;;;9.70;;
60873;SDS011;46715;40.642;-7.920;2024-02-14T02:59:06;24.63;;;10.90;;
60873;SDS011;46715;40.642;-7.920;2024-02-14T03:01:10;22.13;;;10.27;;
60873;SDS011;46715;40.642;-7.920;2024-02-14T03:03:12;24.58;;;10.82;;
60873;SDS011;46715;40.642;-7.920;2024-02-14T03:05:13;27.77;;;11.10;;
60873;SDS011;46715;40.642;-7.920;2024-02-14T03:07:20;27.88;;;9.57;;
60873;SDS011;46715;40.642;-7.920;2024-02-14T03:12:53;21.88;;;9.73;;
60873;SDS011;46715;40.642;-7.920;2024-02-14T03:19:46;349.98;;;30.65;;
60873;SDS011;46715;40.642;-7.920;2024-02-14T03:21:51;27.27;;;11.25;;
60873;SDS011;46715;40.642;-7.920;2024-02-14T03:23:58;40.07;;;13.40;;
60873;SDS011;46715;40.642;-7.920;2024-02-14T03:25:59;27.63;;;12.27;;
60873;SDS011;46715;40.642;-7.920;2024-02-14T03:28:00;25.67;;;12.70;;
60873;SDS011;46715;40.642;-7.920;2024-02-14T03:30:03;27.23;;;12.03;;
60873;SDS011;46715;40.642;-7.920;2024-02-14T03:32:13;227.30;;;20.60;;
60873;SDS011;46715;40.642;-7.920;2024-02-14T03:54:43;19.58;;;9.70;;
60873;SDS011;46715;40.642;-7.920;2024-02-14T03:56:44;19.55;;;10.15;;
60873;SDS011;46715;40.642;-7.920;2024-02-14T04:05:20;15.35;;;8.77;;
60873;SDS011;46715;40.642;-7.920;2024-02-14T04:07:30;16.70;;;9.10;;
60873;SDS011;46715;40.642;-7.920;2024-02-14T04:12:31;63.50;;;10.52;;
60873;SDS011;46715;40.642;-7.920;2024-02-14T04:17:27;16.33;;;9.68;;
60873;SDS011;46715;40.642;-7.920;2024-02-14T04:22:07;17.05;;;9.32;;
60873;SDS011;46715;40.642;-7.920;2024-02-14T04:24:11;18.20;;;9.95;;
60873;SDS011;46715;40.642;-7.920;2024-02-14T04:26:19;204.50;;;17.98;;
60873;SDS011;46715;40.642;-7.920;2024-02-14T04:28:23;16.98;;;9.77;;
60873;SDS011;46715;40.642;-7.920;2024-02-14T04:30:24;14.90;;;9.73;;
60873;SDS011;46715;40.642;-7.920;2024-02-14T04:32:25;18.10;;;9.52;;
60873;SDS011;46715;40.642;-7.920;2024-02-14T04:34:26;16.73;;;9.60;;
60873;SDS011;46715;40.642;-7.920;2024-02-14T04:36:35;20.55;;;9.52;;
60873;SDS011;46715;40.642;-7.920;2024-02-14T04:41:08;16.73;;;9.02;;
60873;SDS011;46715;40.642;-7.920;2024-02-14T04:43:10;14.77;;;9.23;;
60873;SDS011;46715;40.642;-7.920;2024-02-14T04:45:11;16.97;;;9.27;;
60873;SDS011;46715;40.642;-7.920;2024-02-14T04:50:17;14.32;;;9.63;;
60873;SDS011;46715;40.642;-7.920;2024-02-14T04:52:24;15.35;;;9.77;;
60873;SDS011;46715;40.642;-7.920;2024-02-14T04:56:54;9.20;;;6.13;;
60873;SDS011;46715;40.642;-7.920;2024-02-14T05:02:01;12.52;;;7.10;;
60873;SDS011;46715;40.642;-7.920;2024-02-14T05:04:08;8.70;;;6.47;;
60873;SDS011;46715;40.642;-7.920;2024-02-14T05:08:43;10.70;;;7.15;;
60873;SDS011;46715;40.642;-7.920;2024-02-14T05:10:43;11.97;;;7.33;;
60873;SDS011;46715;40.642;-7.920;2024-02-14T05:12:45;8.45;;;6.32;;
60873;SDS011;46715;40.642;-7.920;2024-02-14T05:14:46;10.40;;;7.57;;
60873;SDS011;46715;40.642;-7.920;2024-02-14T05:16:48;12.38;;;8.98;;
60873;SDS011;46715;40.642;-7.920;2024-02-14T05:18:49;16.80;;;9.95;;
60873;SDS011;46715;40.642;-7.920;2024-02-14T05:20:53;14.18;;;10.40;;
60873;SDS011;46715;40.642;-7.920;2024-02-14T05:22:54;14.40;;;10.27;;
60873;SDS011;46715;40.642;-7.920;2024-02-14T05:24:55;15.83;;;10.43;;
60873;SDS011;46715;40.642;-7.920;2024-02-14T05:26:55;18.53;;;10.33;;
60873;SDS011;46715;40.642;-7.920;2024-02-14T05:28:56;11.23;;;8.75;;
60873;SDS011;46715;40.642;-7.920;2024-02-14T05:30:57;13.77;;;8.63;;
60873;SDS011;46715;40.642;-7.920;2024-02-14T05:32:59;13.25;;;9.18;;
60873;SDS011;46715;40.642;-7.920;2024-02-14T05:35:00;12.38;;;8.40;;
60873;SDS011;46715;40.642;-7.920;2024-02-14T05:39:03;12.90;;;8.68;;
60873;SDS011;46715;40.642;-7.920;2024-02-14T05:41:05;8.98;;;6.75;;
60873;SDS011;46715;40.642;-7.920;2024-02-14T05:43:07;10.85;;;6.30;;
60873;SDS011;46715;40.642;-7.920;2024-02-14T05:45:09;8.63;;;6.43;;
60873;SDS011;46715;40.642;-7.920;2024-02-14T05:49:39;7.45;;;5.15;;
60873;SDS011;46715;40.642;-7.920;2024-02-14T05:53:47;9.52;;;5.43;;
60873;SDS011;46715;40.642;-7.920;2024-02-14T05:55:48;7.70;;;5.20;;
60873;SDS011;46715;40.642;-7.920;2024-02-14T05:57:49;8.93;;;5.47;;
60873;SDS011;46715;40.642;-7.920;2024-02-14T05:59:57;7.68;;;5.82;;
60873;SDS011;46715;40.642;-7.920;2024-02-14T06:02:12;7.03;;;4.72;;
60873;SDS011;46715;40.642;-7.920;2024-02-14T06:04:12;11.10;;;5.25;;
60873;SDS011;46715;40.642;-7.920;2024-02-14T06:06:13;8.00;;;5.47;;
60873;SDS011;46715;40.642;-7.920;2024-02-14T06:08:14;6.73;;;5.20;;
60873;SDS011;46715;40.642;-7.920;2024-02-14T06:10:15;8.40;;;5.33;;
60873;SDS011;46715;40.642;-7.920;2024-02-14T06:12:16;8.25;;;5.00;;
60873;SDS011;46715;40.642;-7.920;2024-02-14T06:14:17;8.47;;;4.87;;
60873;SDS011;46715;40.642;-7.920;2024-02-14T06:18:52;5.30;;;4.60;;
60873;SDS011;46715;40.642;-7.920;2024-02-14T06:23:33;6.97;;;3.80;;
60873;SDS011;46715;40.642;-7.920;2024-02-14T06:25:34;8.48;;;4.43;;
60873;SDS011;46715;40.642;-7.920;2024-02-14T06:27:35;322.07;;;18.73;;
60873;SDS011;46715;40.642;-7.920;2024-02-14T06:31:41;4.40;;;3.60;;
60873;SDS011;46715;40.642;-7.920;2024-02-14T06:33:42;4.20;;;3.30;;
60873;SDS011;46715;40.642;-7.920;2024-02-14T06:37:45;5.32;;;3.15;;
60873;SDS011;46715;40.642;-7.920;2024-02-14T06:39:45;4.00;;;2.70;;
60873;SDS011;46715;40.642;-7.920;2024-02-14T06:41:48;4.13;;;2.67;;
60873;SDS011;46715;40.642;-7.920;2024-02-14T06:43:49;4.95;;;2.65;;
60873;SDS011;46715;40.642;-7.920;2024-02-14T06:45:53;3.27;;;2.60;;
60873;SDS011;46715;40.642;-7.920;2024-02-14T06:47:54;4.70;;;2.70;;
60873;SDS011;46715;40.642;-7.920;2024-02-14T06:49:57;5.22;;;2.67;;
60873;SDS011;46715;40.642;-7.920;2024-02-14T06:51:58;4.22;;;2.47;;
60873;SDS011;46715;40.642;-7.920;2024-02-14T06:53:59;3.80;;;3.13;;
60873;SDS011;46715;40.642;-7.920;2024-02-14T06:56:00;4.95;;;3.22;;
60873;SDS011;46715;40.642;-7.920;2024-02-14T06:58:10;6.47;;;2.70;;
60873;SDS011;46715;40.642;-7.920;2024-02-14T07:00:16;7.95;;;3.63;;
60873;SDS011;46715;40.642;-7.920;2024-02-14T07:02:20;5.75;;;3.15;;
60873;SDS011;46715;40.642;-7.920;2024-02-14T07:04:27;4.72;;;3.03;;
60873;SDS011;46715;40.642;-7.920;2024-02-14T07:06:35;4.10;;;3.15;;
60873;SDS011;46715;40.642;-7.920;2024-02-14T07:08:36;6.00;;;2.85;;
60873;SDS011;46715;40.642;-7.920;2024-02-14T07:10:37;6.27;;;3.00;;
60873;SDS011;46715;40.642;-7.920;2024-02-14T07:12:40;4.03;;;2.70;;
60873;SDS011;46715;40.642;-7.920;2024-02-14T07:14:41;6.07;;;2.30;;
60873;SDS011;46715;40.642;-7.920;2024-02-14T07:16:42;2.55;;;2.13;;
60873;SDS011;46715;40.642;-7.920;2024-02-14T07:18:43;3.63;;;2.47;;
60873;SDS011;46715;40.642;-7.920;2024-02-14T07:20:44;6.03;;;2.40;;
60873;SDS011;46715;40.642;-7.920;2024-02-14T07:22:45;7.15;;;2.35;;
60873;SDS011;46715;40.642;-7.920;2024-02-14T07:24:48;5.13;;;2.20;;
60873;SDS011;46715;40.642;-7.920;2024-02-14T07:26:48;3.13;;;2.20;;
60873;SDS011;46715;40.642;-7.920;2024-02-14T07:28:49;3.80;;;2.10;;
60873;SDS011;46715;40.642;-7.920;2024-02-14T07:30:50;6.07;;;2.80;;
60873;SDS011;46715;40.642;-7.920;2024-02-14T07:32:51;3.72;;;2.78;;
60873;SDS011;46715;40.642;-7.920;2024-02-14T07:34:52;38.40;;;5.13;;
60873;SDS011;46715;40.642;-7.920;2024-02-14T07:36:53;6.93;;;3.50;;
60873;SDS011;46715;40.642;-7.920;2024-02-14T07:38:54;7.20;;;3.90;;
60873;SDS011;46715;40.642;-7.920;2024-02-14T07:40:54;6.10;;;3.40;;
60873;SDS011;46715;40.642;-7.920;2024-02-14T07:42:55;4.83;;;3.20;;
60873;SDS011;46715;40.642;-7.920;2024-02-14T07:44:56;8.07;;;3.00;;
60873;SDS011;46715;40.642;-7.920;2024-02-14T07:49:26;8.25;;;3.85;;
60873;SDS011;46715;40.642;-7.920;2024-02-14T07:51:33;6.20;;;3.70;;
60873;SDS011;46715;40.642;-7.920;2024-02-14T07:53:37;7.72;;;3.83;;
60873;SDS011;46715;40.642;-7.920;2024-02-14T07:56:00;5.32;;;2.78;;
60873;SDS011;46715;40.642;-7.920;2024-02-14T07:58:01;6.03;;;3.37;;
60873;SDS011;46715;40.642;-7.920;2024-02-14T08:00:02;7.70;;;4.00;;
60873;SDS011;46715;40.642;-7.920;2024-02-14T08:02:04;4.28;;;3.20;;
60873;SDS011;46715;40.642;-7.920;2024-02-14T08:04:05;4.43;;;3.50;;
60873;SDS011;46715;40.642;-7.920;2024-02-14T08:06:23;4.68;;;2.65;;
60873;SDS011;46715;40.642;-7.920;2024-02-14T08:10:38;4.93;;;2.55;;
60873;SDS011;46715;40.642;-7.920;2024-02-14T08:12:39;5.00;;;2.77;;
60873;SDS011;46715;40.642;-7.920;2024-02-14T08:14:40;3.63;;;2.50;;
60873;SDS011;46715;40.642;-7.920;2024-02-14T08:16:41;6.20;;;2.67;;
60873;SDS011;46715;40.642;-7.920;2024-02-14T08:18:41;4.27;;;2.53;;
60873;SDS011;46715;40.642;-7.920;2024-02-14T08:20:44;3.95;;;2.75;;
60873;SDS011;46715;40.642;-7.920;2024-02-14T08:22:45;8.15;;;4.38;;
60873;SDS011;46715;40.642;-7.920;2024-02-14T08:24:46;5.27;;;3.43;;
60873;SDS011;46715;40.642;-7.920;2024-02-14T08:26:46;6.07;;;2.80;;
60873;SDS011;46715;40.642;-7.920;2024-02-14T08:28:48;3.50;;;2.45;;
60873;SDS011;46715;40.642;-7.920;2024-02-14T08:30:49;3.28;;;2.95;;
60873;SDS011;46715;40.642;-7.920;2024-02-14T08:32:50;7.03;;;2.93;;
60873;SDS011;46715;40.642;-7.920;2024-02-14T08:34:51;3.42;;;2.38;;
60873;SDS011;46715;40.642;-7.920;2024-02-14T08:36:57;7.50;;;4.43;;
60873;SDS011;46715;40.642;-7.920;2024-02-14T08:38:58;11.67;;;6.63;;
60873;SDS011;46715;40.642;-7.920;2024-02-14T08:40:59;9.30;;;6.10;;
60873;SDS011;46715;40.642;-7.920;2024-02-14T08:43:00;7.53;;;5.72;;
60873;SDS011;46715;40.642;-7.920;2024-02-14T08:45:01;7.75;;;5.00;;
60873;SDS011;46715;40.642;-7.920;2024-02-14T08:47:03;7.88;;;5.57;;
60873;SDS011;46715;40.642;-7.920;2024-02-14T08:49:04;8.80;;;5.38;;
60873;SDS011;46715;40.642;-7.920;2024-02-14T08:51:08;8.05;;;5.07;;
60873;SDS011;46715;40.642;-7.920;2024-02-14T08:53:10;7.43;;;4.40;;
60873;SDS011;46715;40.642;-7.920;2024-02-14T08:55:14;7.20;;;5.10;;
60873;SDS011;46715;40.642;-7.920;2024-02-14T08:57:20;6.22;;;4.80;;
60873;SDS011;46715;40.642;-7.920;2024-02-14T08:59:23;7.75;;;5.68;;
60873;SDS011;46715;40.642;-7.920;2024-02-14T09:01:30;8.63;;;5.97;;
60873;SDS011;46715;40.642;-7.920;2024-02-14T09:03:31;10.98;;;5.68;;
60873;SDS011;46715;40.642;-7.920;2024-02-14T09:05:47;7.63;;;3.80;;
60873;SDS011;46715;40.642;-7.920;2024-02-14T09:10:20;3.00;;;1.90;;
60873;SDS011;46715;40.642;-7.920;2024-02-14T09:12:22;3.85;;;1.60;;
60873;SDS011;46715;40.642;-7.920;2024-02-14T09:14:24;1.92;;;1.55;;
60873;SDS011;46715;40.642;-7.920;2024-02-14T09:16:25;2.08;;;1.40;;
60873;SDS011;46715;40.642;-7.920;2024-02-14T09:18:25;3.10;;;1.50;;
60873;SDS011;46715;40.642;-7.920;2024-02-14T09:22:28;4.13;;;1.60;;
60873;SDS011;46715;40.642;-7.920;2024-02-14T09:24:30;3.72;;;1.67;;
60873;SDS011;46715;40.642;-7.920;2024-02-14T09:26:31;3.47;;;1.58;;
60873;SDS011;46715;40.642;-7.920;2024-02-14T09:28:32;1.73;;;1.40;;
60873;SDS011;46715;40.642;-7.920;2024-02-14T09:30:35;2.05;;;1.33;;
60873;SDS011;46715;40.642;-7.920;2024-02-14T09:32:36;3.90;;;1.73;;
60873;SDS011;46715;40.642;-7.920;2024-02-14T09:34:37;4.32;;;1.30;;
60873;SDS011;46715;40.642;-7.920;2024-02-14T09:36:38;4.45;;;1.58;;
60873;SDS011;46715;40.642;-7.920;2024-02-14T09:38:39;2.55;;;1.35;;
60873;SDS011;46715;40.642;-7.920;2024-02-14T09:40:41;2.72;;;1.00;;
60873;SDS011;46715;40.642;-7.920;2024-02-14T09:42:44;2.40;;;1.23;;
60873;SDS011;46715;40.642;-7.920;2024-02-14T09:44:49;2.72;;;1.00;;
60873;SDS011;46715;40.642;-7.920;2024-02-14T09:46:53;3.75;;;1.02;;
60873;SDS011;46715;40.642;-7.920;2024-02-14T09:48:54;2.72;;;2.05;;
60873;SDS011;46715;40.642;-7.920;2024-02-14T09:50:56;2.22;;;1.27;;
60873;SDS011;46715;40.642;-7.920;2024-02-14T09:52:57;1.90;;;1.00;;
60873;SDS011;46715;40.642;-7.920;2024-02-14T09:54:59;3.92;;;1.15;;
60873;SDS011;46715;40.642;-7.920;2024-02-14T09:57:03;3.55;;;0.80;;
60873;SDS011;46715;40.642;-7.920;2024-02-14T09:59:05;2.63;;;1.27;;
60873;SDS011;46715;40.642;-7.920;2024-02-14T10:01:06;2.20;;;0.95;;
60873;SDS011;46715;40.642;-7.920;2024-02-14T10:03:07;3.53;;;1.10;;
60873;SDS011;46715;40.642;-7.920;2024-02-14T10:05:08;2.60;;;1.08;;
60873;SDS011;46715;40.642;-7.920;2024-02-14T10:07:09;2.22;;;1.05;;
60873;SDS011;46715;40.642;-7.920;2024-02-14T10:09:10;3.78;;;1.17;;
60873;SDS011;46715;40.642;-7.920;2024-02-14T10:11:11;2.75;;;1.30;;
60873;SDS011;46715;40.642;-7.920;2024-02-14T10:13:15;4.18;;;1.60;;
60873;SDS011;46715;40.642;-7.920;2024-02-14T10:15:16;5.90;;;1.60;;
60873;SDS011;46715;40.642;-7.920;2024-02-14T10:17:18;3.92;;;1.40;;
60873;SDS011;46715;40.642;-7.920;2024-02-14T10:19:19;2.97;;;1.48;;
60873;SDS011;46715;40.642;-7.920;2024-02-14T10:21:20;5.68;;;1.30;;
60873;SDS011;46715;40.642;-7.920;2024-02-14T10:23:22;2.80;;;1.30;;
60873;SDS011;46715;40.642;-7.920;2024-02-14T10:25:23;4.22;;;1.60;;
60873;SDS011;46715;40.642;-7.920;2024-02-14T10:27:25;4.80;;;2.65;;
60873;SDS011;46715;40.642;-7.920;2024-02-14T10:29:27;7.63;;;2.13;;
60873;SDS011;46715;40.642;-7.920;2024-02-14T10:31:28;4.45;;;1.83;;
60873;SDS011;46715;40.642;-7.920;2024-02-14T10:33:29;3.10;;;1.60;;
60873;SDS011;46715;40.642;-7.920;2024-02-14T10:35:30;2.45;;;1.67;;
60873;SDS011;46715;40.642;-7.920;2024-02-14T10:37:34;3.97;;;1.67;;
60873;SDS011;46715;40.642;-7.920;2024-02-14T10:39:38;2.70;;;1.52;;
60873;SDS011;46715;40.642;-7.920;2024-02-14T10:41:41;2.33;;;1.35;;
60873;SDS011;46715;40.642;-7.920;2024-02-14T10:43:42;2.97;;;1.43;;
60873;SDS011;46715;40.642;-7.920;2024-02-14T10:45:47;5.45;;;1.63;;
60873;SDS011;46715;40.642;-7.920;2024-02-14T10:47:49;3.72;;;1.45;;
60873;SDS011;46715;40.642;-7.920;2024-02-14T10:49:52;4.00;;;1.65;;
60873;SDS011;46715;40.642;-7.920;2024-02-14T10:51:54;4.40;;;1.73;;
60873;SDS011;46715;40.642;-7.920;2024-02-14T10:54:03;2.80;;;1.70;;
60873;SDS011;46715;40.642;-7.920;2024-02-14T10:56:09;5.18;;;1.70;;
60873;SDS011;46715;40.642;-7.920;2024-02-14T10:58:10;5.07;;;1.75;;
60873;SDS011;46715;40.642;-7.920;2024-02-14T11:00:14;4.95;;;2.05;;
60873;SDS011;46715;40.642;-7.920;2024-02-14T11:02:18;3.50;;;2.30;;
60873;SDS011;46715;40.642;-7.920;2024-02-14T11:04:20;3.13;;;2.20;;
60873;SDS011;46715;40.642;-7.920;2024-02-14T11:06:21;5.68;;;2.60;;
60873;SDS011;46715;40.642;-7.920;2024-02-14T11:08:22;3.83;;;2.13;;
60873;SDS011;46715;40.642;-7.920;2024-02-14T11:10:26;3.97;;;1.90;;
60873;SDS011;46715;40.642;-7.920;2024-02-14T11:12:31;2.90;;;1.98;;
60873;SDS011;46715;40.642;-7.920;2024-02-14T11:14:37;3.58;;;2.15;;
60873;SDS011;46715;40.642;-7.920;2024-02-14T11:16:39;2.85;;;1.85;;
60873;SDS011;46715;40.642;-7.920;2024-02-14T11:18:41;4.28;;;2.15;;
60873;SDS011;46715;40.642;-7.920;2024-02-14T11:20:41;3.33;;;1.90;;
60873;SDS011;46715;40.642;-7.920;2024-02-14T11:22:50;4.93;;;2.58;;
60873;SDS011;46715;40.642;-7.920;2024-02-14T11:24:57;2.95;;;1.60;;
60873;SDS011;46715;40.642;-7.920;2024-02-14T11:26:58;4.93;;;2.08;;
60873;SDS011;46715;40.642;-7.920;2024-02-14T11:29:03;3.97;;;2.05;;
60873;SDS011;46715;40.642;-7.920;2024-02-14T11:31:06;2.67;;;1.80;;
60873;SDS011;46715;40.642;-7.920;2024-02-14T11:35:11;2.80;;;1.73;;
60873;SDS011;46715;40.642;-7.920;2024-02-14T11:37:13;3.17;;;1.50;;
60873;SDS011;46715;40.642;-7.920;2024-02-14T11:39:15;1.90;;;1.38;;
60873;SDS011;46715;40.642;-7.920;2024-02-14T11:41:16;2.03;;;1.50;;
60873;SDS011;46715;40.642;-7.920;2024-02-14T11:43:18;2.50;;;1.70;;
60873;SDS011;46715;40.642;-7.920;2024-02-14T11:45:23;3.13;;;1.63;;
60873;SDS011;46715;40.642;-7.920;2024-02-14T11:47:24;2.83;;;1.13;;
60873;SDS011;46715;40.642;-7.920;2024-02-14T11:49:25;2.53;;;1.50;;
60873;SDS011;46715;40.642;-7.920;2024-02-14T11:51:29;2.13;;;1.40;;
60873;SDS011;46715;40.642;-7.920;2024-02-14T11:53:30;4.22;;;1.23;;
60873;SDS011;46715;40.642;-7.920;2024-02-14T11:57:35;1.77;;;1.38;;
60873;SDS011;46715;40.642;-7.920;2024-02-14T11:59:36;2.70;;;1.40;;
60873;SDS011;46715;40.642;-7.920;2024-02-14T12:01:37;2.20;;;1.38;;
60873;SDS011;46715;40.642;-7.920;2024-02-14T12:03:39;1.80;;;1.40;;
60873;SDS011;46715;40.642;-7.920;2024-02-14T12:05:41;4.25;;;2.05;;
60873;SDS011;46715;40.642;-7.920;2024-02-14T12:07:47;3.03;;;1.60;;
60873;SDS011;46715;40.642;-7.920;2024-02-14T12:09:48;3.90;;;1.80;;
60873;SDS011;46715;40.642;-7.920;2024-02-14T12:11:49;1.98;;;1.50;;
60873;SDS011;46715;40.642;-7.920;2024-02-14T12:13:50;3.38;;;1.70;;
60873;SDS011;46715;40.642;-7.920;2024-02-14T12:15:51;3.38;;;1.85;;
60873;SDS011;46715;40.642;-7.920;2024-02-14T12:17:52;4.68;;;1.98;;
60873;SDS011;46715;40.642;-7.920;2024-02-14T12:20:08;4.93;;;2.30;;
60873;SDS011;46715;40.642;-7.920;2024-02-14T12:22:10;3.15;;;2.10;;
60873;SDS011;46715;40.642;-7.920;2024-02-14T12:24:17;2.90;;;1.80;;
60873;SDS011;46715;40.642;-7.920;2024-02-14T12:26:18;3.57;;;2.30;;
60873;SDS011;46715;40.642;-7.920;2024-02-14T12:30:20;2.80;;;1.97;;
60873;SDS011;46715;40.642;-7.920;2024-02-14T12:32:23;5.30;;;1.70;;
60873;SDS011;46715;40.642;-7.920;2024-02-14T12:34:23;4.60;;;1.83;;
60873;SDS011;46715;40.642;-7.920;2024-02-14T12:36:24;3.05;;;1.60;;
60873;SDS011;46715;40.642;-7.920;2024-02-14T12:38:33;2.67;;;1.60;;
60873;SDS011;46715;40.642;-7.920;2024-02-14T12:40:34;3.47;;;1.75;;
60873;SDS011;46715;40.642;-7.920;2024-02-14T12:42:35;2.58;;;1.83;;
60873;SDS011;46715;40.642;-7.920;2024-02-14T12:44:36;4.35;;;2.47;;
60873;SDS011;46715;40.642;-7.920;2024-02-14T12:46:38;3.28;;;1.75;;
60873;SDS011;46715;40.642;-7.920;2024-02-14T12:48:39;6.72;;;2.65;;
60873;SDS011;46715;40.642;-7.920;2024-02-14T12:50:39;4.38;;;2.03;;
60873;SDS011;46715;40.642;-7.920;2024-02-14T12:52:45;4.85;;;2.20;;
60873;SDS011;46715;40.642;-7.920;2024-02-14T12:54:46;3.58;;;1.83;;
60873;SDS011;46715;40.642;-7.920;2024-02-14T12:56:49;3.35;;;1.90;;
60873;SDS011;46715;40.642;-7.920;2024-02-14T12:58:49;4.15;;;1.83;;
60873;SDS011;46715;40.642;-7.920;2024-02-14T13:00:50;3.28;;;1.90;;
60873;SDS011;46715;40.642;-7.920;2024-02-14T13:02:51;6.20;;;1.70;;
60873;SDS011;46715;40.642;-7.920;2024-02-14T13:04:53;5.78;;;2.10;;
60873;SDS011;46715;40.642;-7.920;2024-02-14T13:06:54;3.15;;;2.00;;
60873;SDS011;46715;40.642;-7.920;2024-02-14T13:08:55;4.22;;;1.95;;
60873;SDS011;46715;40.642;-7.920;2024-02-14T13:10:56;4.30;;;2.15;;
60873;SDS011;46715;40.642;-7.920;2024-02-14T13:12:57;3.38;;;1.83;;
60873;SDS011;46715;40.642;-7.920;2024-02-14T13:14:58;3.20;;;1.70;;
60873;SDS011;46715;40.642;-7.920;2024-02-14T13:16:59;1.85;;;1.58;;
60873;SDS011;46715;40.642;-7.920;2024-02-14T13:19:00;3.72;;;2.40;;
60873;SDS011;46715;40.642;-7.920;2024-02-14T13:21:00;3.03;;;1.90;;
60873;SDS011;46715;40.642;-7.920;2024-02-14T13:23:01;3.00;;;1.80;;
60873;SDS011;46715;40.642;-7.920;2024-02-14T13:25:03;3.05;;;1.73;;
60873;SDS011;46715;40.642;-7.920;2024-02-14T13:29:12;3.55;;;2.08;;
60873;SDS011;46715;40.642;-7.920;2024-02-14T13:31:12;4.60;;;2.25;;
60873;SDS011;46715;40.642;-7.920;2024-02-14T13:33:14;3.17;;;1.70;;
60873;SDS011;46715;40.642;-7.920;2024-02-14T13:35:15;3.72;;;2.35;;